createdAt,value
2022-12-03T00:08:33.915Z,101545.72
2022-12-03T00:23:41.488Z,101553.50
2022-12-03T00:38:44.262Z,101564.22
2022-12-03T00:53:46.074Z,101564.00
2022-12-03T01:08:47.865Z,101583.72
2022-12-03T01:23:49.753Z,101592.34
2022-12-03T01:38:51.789Z,101608.25
2022-12-03T01:53:53.626Z,101598.50
2022-12-03T02:08:59.711Z,101627.72
2022-12-03T02:24:19.799Z,101638.69
2022-12-03T02:39:21.736Z,101663.38
2022-12-03T02:54:23.923Z,101666.97
2022-12-03T03:09:26.020Z,101675.22
2022-12-03T03:24:27.871Z,101651.81
2022-12-03T03:39:30.041Z,101690.63
2022-12-03T03:54:32.348Z,101696.59
2022-12-03T04:09:34.138Z,101713.75
2022-12-03T04:24:35.952Z,101732.06
2022-12-03T04:39:38.029Z,101754.84
2022-12-03T04:54:40.629Z,101768.63
2022-12-03T05:09:42.425Z,101787.28
2022-12-03T05:24:44.226Z,101804.31
2022-12-03T05:39:46.255Z,101812.03
2022-12-03T05:54:48.584Z,101807.56
2022-12-03T06:09:50.400Z,101832.97
2022-12-03T06:24:52.605Z,101847.28
2022-12-03T06:39:54.699Z,101849.50
2022-12-03T06:54:56.743Z,101844.97
2022-12-03T07:09:59.032Z,101826.47
2022-12-03T07:25:00.924Z,101849.97
2022-12-03T07:40:03.960Z,101865.53
2022-12-03T07:55:06.330Z,101852.63
2022-12-03T08:10:08.556Z,101865.41
2022-12-03T08:25:21.728Z,101865.56
2022-12-03T08:40:37.241Z,101859.50
2022-12-03T08:55:48.615Z,101850.94
2022-12-03T09:10:50.509Z,101850.16
2022-12-03T09:25:55.173Z,101864.09
2022-12-03T09:40:57.270Z,101850.97
2022-12-03T09:56:00.551Z,101847.41
2022-12-03T10:11:02.456Z,101836.94
2022-12-03T10:26:04.329Z,101832.16
2022-12-03T10:41:25.494Z,101846.78
2022-12-03T10:56:27.684Z,101830.69
2022-12-03T11:11:31.208Z,101836.03
2022-12-03T11:26:32.971Z,101842.38
2022-12-03T11:41:35.952Z,101836.91
2022-12-03T11:56:45.463Z,101839.88
2022-12-03T12:11:47.434Z,101865.06
2022-12-03T12:26:52.458Z,101862.06
2022-12-03T12:41:54.995Z,101881.16
2022-12-03T12:56:56.807Z,101903.66
2022-12-03T13:12:01.013Z,101913.56
2022-12-03T13:27:21.884Z,101920.88
2022-12-03T13:42:41.791Z,101934.88
2022-12-03T13:57:43.951Z,101949.59
2022-12-03T14:12:45.856Z,101958.09
2022-12-03T14:27:47.941Z,102001.69
2022-12-03T14:42:50.033Z,101991.19
2022-12-03T14:57:51.911Z,102008.28
2022-12-03T15:12:53.721Z,102009.22
2022-12-03T15:27:55.495Z,102046.69
2022-12-03T15:42:57.491Z,102049.56
2022-12-03T15:57:59.342Z,102063.75
2022-12-03T16:13:01.188Z,102087.34
2022-12-03T16:28:03.455Z,102092.06
2022-12-03T16:43:05.592Z,102094.50
2022-12-03T16:58:07.587Z,102129.78
2022-12-03T17:13:10.726Z,102147.69
2022-12-03T17:28:13.018Z,102169.63
2022-12-03T17:43:15.091Z,102184.22
2022-12-03T17:58:16.941Z,102200.38
2022-12-03T18:13:18.751Z,102184.50
2022-12-03T18:28:20.784Z,102186.84
2022-12-03T18:43:22.849Z,102203.78
2022-12-03T18:58:24.610Z,102201.03
2022-12-03T19:13:27.722Z,102229.25
2022-12-03T19:28:33.102Z,102212.03
2022-12-03T19:43:37.201Z,102243.75
2022-12-03T19:58:40.860Z,102258.69
2022-12-03T20:13:43.455Z,102252.53
2022-12-03T20:28:46.074Z,102272.72
2022-12-03T20:43:57.051Z,102292.31
2022-12-03T20:59:05.155Z,102296.16
2022-12-03T21:14:08.005Z,102286.69
2022-12-03T21:29:09.903Z,102306.72
2022-12-03T21:44:11.799Z,102310.81
2022-12-03T21:59:13.626Z,102303.88
2022-12-03T22:14:15.534Z,102313.03
2022-12-03T22:29:17.402Z,102302.75
2022-12-03T22:44:19.333Z,102306.38
2022-12-03T22:59:21.139Z,102306.38
2022-12-03T23:14:22.919Z,102302.75
2022-12-03T23:29:24.683Z,102327.56
2022-12-03T23:44:27.958Z,102326.78
2022-12-03T23:59:29.864Z,102341.53
